Time;durP1;ratioP1;P1;durP2;ratioP2;P2;SDS_P1;SDS_P2;PMS_P1;PMS_P2;Temp;Humidity;BMP_temperature;BMP_pressure;BME280_temperature;BME280_humidity;BME280_pressure;Samples;Min_cycle;Max_cycle;Signal;HPM_P1;HPM_P2
2022/03/08 00:01:48;;;;;;;20.33;13.93;;;-1.20;55.20;;;;;;5066749;28;20243;-84
2022/03/08 00:04:15;;;;;;;23.58;12.90;;;-1.30;55.40;;;;;;5067344;28;20261;-84
2022/03/08 00:06:42;;;;;;;18.80;13.13;;;-1.10;55.20;;;;;;5067541;28;20218;-84
2022/03/08 00:09:09;;;;;;;16.55;12.35;;;;;;;;;;5053226;28;20839;-84
2022/03/08 00:11:36;;;;;;;20.15;11.82;;;-1.20;54.80;;;;;;5068050;28;20264;-83
2022/03/08 00:14:03;;;;;;;17.67;11.90;;;-1.20;55.10;;;;;;5067555;28;20211;-84
2022/03/08 00:16:32;;;;;;;13.73;11.40;;;-1.30;55.20;;;;;;5067547;28;20199;-84
2022/03/08 00:18:59;;;;;;;18.55;12.63;;;-1.30;68.60;;;;;;5067502;28;20231;-84
2022/03/08 00:21:26;;;;;;;19.38;12.80;;;-1.50;55.70;;;;;;5067756;28;20253;-84
2022/03/08 00:23:53;;;;;;;18.63;13.10;;;-1.10;56.50;;;;;;5067555;28;20199;-84
2022/03/08 00:26:19;;;;;;;22.20;14.77;;;-1.60;56.80;;;;;;5067511;28;20246;-84
2022/03/08 00:28:46;;;;;;;22.25;14.68;;;-0.50;63.40;;;;;;5067765;28;20290;-83
2022/03/08 00:31:13;;;;;;;21.10;13.40;;;-1.70;57.00;;;;;;5067268;28;20257;-83
2022/03/08 00:33:42;;;;;;;20.73;13.02;;;-1.70;57.00;;;;;;5067874;28;20264;-83
2022/03/08 00:36:09;;;;;;;17.92;13.10;;;;;;;;;;5067069;28;20214;-83
2022/03/08 00:38:36;;;;;;;17.98;12.00;;;-1.70;71.30;;;;;;5067310;28;20347;-83
2022/03/08 00:41:03;;;;;;;19.40;13.30;;;-1.80;57.10;;;;;;5054773;28;20243;-83
2022/03/08 00:43:30;;;;;;;17.58;12.13;;;-1.70;56.90;;;;;;5070459;28;20200;-83
2022/03/08 00:45:57;;;;;;;20.98;13.35;;;-1.80;56.90;;;;;;5071343;28;20280;-83
2022/03/08 00:48:24;;;;;;;16.85;12.40;;;-1.90;69.30;;;;;;5071036;28;20203;-83
2022/03/08 00:50:52;;;;;;;20.92;12.60;;;-1.90;57.00;;;;;;5066835;28;20338;-83
2022/03/08 00:53:19;;;;;;;19.23;12.43;;;-1.80;71.90;;;;;;5071336;28;20203;-83
2022/03/08 00:55:49;;;;;;;17.80;12.90;;;-1.90;64.10;;;;;;5070676;28;20203;-83
2022/03/08 00:58:16;;;;;;;19.95;11.88;;;;;;;;;;5070492;28;20282;-83
2022/03/08 01:00:43;;;;;;;18.10;12.23;;;-2.00;57.60;;;;;;5070839;28;20203;-83
2022/03/08 01:03:10;;;;;;;22.38;14.88;;;-2.00;58.70;;;;;;5068822;28;20259;-83
2022/03/08 01:05:37;;;;;;;19.00;12.85;;;-2.00;58.40;;;;;;5071152;28;20257;-83
2022/03/08 01:08:06;;;;;;;18.70;11.63;;;-2.10;74.10;;;;;;5070464;28;20659;-83
2022/03/08 01:10:34;;;;;;;17.83;11.70;;;-2.10;58.80;;;;;;5071571;28;20641;-83
2022/03/08 01:13:04;;;;;;;16.90;13.00;;;-2.10;58.60;;;;;;5071458;28;20631;-83
2022/03/08 01:15:34;;;;;;;19.52;12.40;;;-2.30;72.60;;;;;;5071293;28;20199;-83
2022/03/08 01:18:01;;;;;;;23.70;12.40;;;-2.10;58.50;;;;;;5072352;28;20196;-83
2022/03/08 01:20:28;;;;;;;17.77;12.13;;;-2.20;59.10;;;;;;5073969;28;20741;-83
2022/03/08 01:22:56;;;;;;;16.95;11.43;;;-2.20;59.10;;;;;;5073508;28;20203;-83
2022/03/08 01:25:25;;;;;;;19.48;12.82;;;-2.20;59.00;;;;;;5071008;28;20490;-83
2022/03/08 01:27:53;;;;;;;14.95;11.18;;;-2.40;74.60;;;;;;5070368;28;20305;-83
2022/03/08 01:30:23;;;;;;;18.13;12.63;;;-2.20;58.80;;;;;;5071088;28;20320;-83
2022/03/08 01:32:51;;;;;;;17.15;11.50;;;-2.20;58.70;;;;;;5071047;28;20252;-83
2022/03/08 01:35:18;;;;;;;16.25;11.95;;;-2.30;67.20;;;;;;5070418;28;20674;-83
2022/03/08 01:37:46;;;;;;;19.70;11.18;;;-2.30;58.30;;;;;;5070624;28;20215;-83
2022/03/08 01:40:15;;;;;;;19.60;13.20;;;-2.30;58.30;;;;;;5069830;28;20203;-84
2022/03/08 01:42:46;;;;;;;19.48;12.73;;;-2.30;58.60;;;;;;5070271;28;20673;-83
2022/03/08 01:45:14;;;;;;;16.95;11.50;;;-2.30;58.50;;;;;;5065175;28;20814;-83
2022/03/08 01:47:41;;;;;;;18.90;11.77;;;-2.40;58.60;;;;;;5070539;28;20245;-83
2022/03/08 01:50:09;;;;;;;16.75;11.40;;;-2.40;58.50;;;;;;5070183;28;20195;-83
2022/03/08 01:52:36;;;;;;;15.40;10.82;;;-2.50;58.90;;;;;;5070454;28;20261;-83
2022/03/08 01:55:03;;;;;;;17.17;10.90;;;-2.50;58.90;;;;;;5069915;28;20928;-83
2022/03/08 01:57:31;;;;;;;15.13;11.63;;;-2.50;58.50;;;;;;5070310;28;20236;-83
2022/03/08 01:59:59;;;;;;;16.38;12.38;;;-2.40;58.80;;;;;;5069792;28;20204;-84
2022/03/08 02:02:26;;;;;;;22.45;11.70;;;-2.50;58.80;;;;;;5068483;28;20230;-83
2022/03/08 02:04:53;;;;;;;14.85;10.93;;;-1.90;59.60;;;;;;5068931;28;20681;-83
2022/03/08 02:07:20;;;;;;;16.95;12.20;;;-2.50;59.00;;;;;;5070004;28;20222;-83
2022/03/08 02:09:48;;;;;;;15.60;10.90;;;;;;;;;;5069815;28;20230;-83
2022/03/08 02:12:16;;;;;;;16.25;11.93;;;-2.50;58.40;;;;;;5069592;28;20747;-83
2022/03/08 02:14:44;;;;;;;15.35;11.52;;;-2.80;67.40;;;;;;5069816;28;20199;-83
2022/03/08 02:17:12;;;;;;;18.77;12.23;;;-2.70;58.40;;;;;;5069356;28;20282;-83
2022/03/08 02:19:41;;;;;;;14.77;9.85;;;-2.70;58.40;;;;;;5069284;28;20200;-83
2022/03/08 02:22:10;;;;;;;19.40;11.40;;;-2.70;58.70;;;;;;5069553;28;20664;-83
2022/03/08 02:24:38;;;;;;;14.25;12.02;;;-2.70;58.80;;;;;;5069206;28;20975;-83
2022/03/08 02:27:07;;;;;;;15.55;10.45;;;-2.70;58.40;;;;;;5069059;28;20215;-83
2022/03/08 02:29:34;;;;;;;17.40;10.38;;;-2.80;58.70;;;;;;5069464;28;20611;-83
2022/03/08 02:32:02;;;;;;;16.20;11.23;;;-2.60;58.70;;;;;;5069296;28;20199;-83
2022/03/08 02:34:29;;;;;;;17.73;12.10;;;-2.60;71.40;;;;;;5069234;28;20218;-83
2022/03/08 02:36:59;;;;;;;15.82;11.30;;;-3.00;64.80;;;;;;5069322;28;20195;-83
2022/03/08 02:39:27;;;;;;;20.90;11.60;;;-2.60;59.50;;;;;;5064044;28;20877;-83
2022/03/08 02:41:54;;;;;;;18.83;12.23;;;-2.70;71.00;;;;;;5069195;28;20223;-82
2022/03/08 02:44:22;;;;;;;20.13;12.43;;;-2.70;59.30;;;;;;5068335;28;20578;-83
2022/03/08 02:46:48;;;;;;;18.05;11.52;;;-2.90;64.30;;;;;;5068968;28;20680;-83
2022/03/08 02:49:15;;;;;;;24.67;13.20;;;-2.80;59.20;;;;;;5068615;28;20979;-84
2022/03/08 02:51:42;;;;;;;19.17;11.27;;;-2.80;59.20;;;;;;5068999;28;20250;-83
2022/03/08 02:54:09;;;;;;;18.40;11.35;;;-2.80;59.80;;;;;;5068990;28;20306;-83
2022/03/08 02:56:38;;;;;;;16.40;10.63;;;-2.80;73.50;;;;;;5068603;28;20195;-83
2022/03/08 02:59:06;;;;;;;15.23;10.27;;;-2.80;59.20;;;;;;5068808;28;20195;-83
2022/03/08 03:01:33;;;;;;;16.40;12.02;;;-2.90;59.30;;;;;;5068174;28;20288;-83
2022/03/08 03:03:59;;;;;;;16.85;11.20;;;-2.90;59.40;;;;;;5067319;28;20230;-83
2022/03/08 03:06:26;;;;;;;19.17;11.57;;;-2.90;60.00;;;;;;5068157;28;20195;-83
2022/03/08 03:08:53;;;;;;;24.20;12.40;;;-2.90;59.70;;;;;;5068381;28;20789;-83
2022/03/08 03:11:20;;;;;;;18.33;11.75;;;;;;;;;;5068312;28;20230;-83
2022/03/08 03:13:49;;;;;;;16.02;10.80;;;-2.90;59.70;;;;;;5068185;28;20203;-83
2022/03/08 03:16:15;;;;;;;19.27;12.50;;;-3.00;60.00;;;;;;5068467;28;20289;-83
2022/03/08 03:18:42;;;;;;;21.38;12.85;;;-3.10;65.40;;;;;;5068981;28;20249;-83
2022/03/08 03:21:09;;;;;;;16.38;11.27;;;-3.10;59.80;;;;;;5068391;28;20215;-83
2022/03/08 03:23:36;;;;;;;16.63;10.98;;;-3.00;59.90;;;;;;5068586;28;20211;-83
2022/03/08 03:26:03;;;;;;;13.95;10.80;;;;;;;;;;5067694;28;20303;-83
2022/03/08 03:28:30;;;;;;;17.05;12.27;;;-3.10;59.70;;;;;;5068445;28;20215;-83
2022/03/08 03:30:59;;;;;;;15.90;9.93;;;-3.10;59.90;;;;;;5068449;28;20296;-83
2022/03/08 03:33:25;;;;;;;15.88;11.50;;;-3.10;59.50;;;;;;5068254;28;20257;-83
2022/03/08 03:35:52;;;;;;;16.02;10.80;;;-3.10;59.90;;;;;;5063893;28;20317;-83
2022/03/08 03:38:19;;;;;;;19.45;10.82;;;-3.10;60.30;;;;;;5068109;28;20252;-83
2022/03/08 03:40:46;;;;;;;19.90;10.40;;;-3.20;67.30;;;;;;5067448;28;20300;-83
2022/03/08 03:43:13;;;;;;;16.90;11.57;;;-2.40;61.10;;;;;;5068253;28;20713;-83
2022/03/08 03:45:40;;;;;;;21.42;10.82;;;-3.20;60.20;;;;;;5068377;28;20623;-83
2022/03/08 03:48:08;;;;;;;14.52;10.50;;;-3.20;60.10;;;;;;5067825;28;20294;-83
2022/03/08 03:50:35;;;;;;;16.77;10.95;;;-3.20;60.50;;;;;;5068204;28;20617;-83
2022/03/08 03:53:02;;;;;;;16.63;9.77;;;-3.20;59.80;;;;;;5067917;28;20222;-83
2022/03/08 03:55:29;;;;;;;16.70;11.63;;;-2.40;60.40;;;;;;5068272;28;20195;-83
2022/03/08 03:57:56;;;;;;;12.75;10.95;;;-2.90;60.80;;;;;;5068370;28;20207;-83
2022/03/08 04:00:23;;;;;;;14.20;10.30;;;-3.20;60.00;;;;;;5068140;28;20203;-83
2022/03/08 04:02:50;;;;;;;15.43;10.80;;;-3.20;60.20;;;;;;5066565;28;20281;-83
2022/03/08 04:05:18;;;;;;;13.68;10.95;;;-3.20;60.20;;;;;;5067974;28;20203;-83
2022/03/08 04:07:45;;;;;;;16.02;9.85;;;-3.10;75.00;;;;;;5068171;28;20204;-83
2022/03/08 04:10:14;;;;;;;14.30;9.40;;;-3.10;60.20;;;;;;5067754;28;20206;-83
2022/03/08 04:12:41;;;;;;;11.48;8.43;;;-3.00;59.70;;;;;;5067823;28;20317;-83
2022/03/08 04:15:09;;;;;;;13.98;8.85;;;-2.90;58.90;;;;;;5067405;28;20218;-83
2022/03/08 04:17:36;;;;;;;10.10;8.02;;;-2.70;58.30;;;;;;5068086;28;20215;-83
2022/03/08 04:20:04;;;;;;;12.38;7.72;;;-2.60;58.10;;;;;;5067913;28;20246;-83
2022/03/08 04:22:33;;;;;;;11.52;7.88;;;-2.50;57.10;;;;;;5067523;28;20211;-83
2022/03/08 04:25:00;;;;;;;14.13;8.38;;;-2.40;57.20;;;;;;5068123;28;20207;-83
2022/03/08 04:27:26;;;;;;;11.18;8.10;;;-2.30;56.80;;;;;;5067852;28;20223;-83
2022/03/08 04:29:53;;;;;;;10.30;8.60;;;-2.20;68.70;;;;;;5063221;28;20235;-83
2022/03/08 04:32:20;;;;;;;9.50;7.75;;;-2.00;56.30;;;;;;5068538;28;20601;-83
2022/03/08 04:34:47;;;;;;;11.50;8.23;;;-2.10;55.40;;;;;;5069877;28;20210;-83
2022/03/08 04:37:14;;;;;;;12.75;7.15;;;-2.10;55.20;;;;;;5067725;28;20729;-83
2022/03/08 04:39:42;;;;;;;10.55;7.22;;;-2.10;55.00;;;;;;5068004;28;20215;-83
2022/03/08 04:42:09;;;;;;;11.77;7.13;;;-1.90;55.30;;;;;;5067470;28;20264;-83
2022/03/08 04:44:38;;;;;;;16.15;8.48;;;-2.00;55.00;;;;;;5068114;28;20235;-83
2022/03/08 04:47:05;;;;;;;14.55;9.35;;;-1.80;55.20;;;;;;5067795;28;20211;-83
2022/03/08 04:49:32;;;;;;;11.07;8.07;;;-1.70;55.00;;;;;;5067300;28;20205;-83
2022/03/08 04:51:59;;;;;;;9.90;7.32;;;-1.70;54.60;;;;;;5067699;28;20210;-83
2022/03/08 04:54:25;;;;;;;15.20;7.53;;;-1.80;54.40;;;;;;5067942;28;20199;-83
2022/03/08 04:56:54;;;;;;;9.73;6.95;;;-1.70;58.30;;;;;;5068104;28;20238;-83
2022/03/08 04:59:21;;;;;;;10.57;7.85;;;-1.70;54.10;;;;;;5067285;28;20297;-83
2022/03/08 05:01:49;;;;;;;9.23;7.75;;;-1.60;54.10;;;;;;5067889;28;20204;-83
2022/03/08 05:04:16;;;;;;;10.75;8.00;;;-1.50;54.00;;;;;;5065834;28;20635;-83
2022/03/08 05:06:43;;;;;;;10.15;7.63;;;-1.50;54.10;;;;;;5067658;28;20218;-83
2022/03/08 05:09:10;;;;;;;8.98;6.90;;;-1.40;54.00;;;;;;5067221;28;20231;-83
2022/03/08 05:11:37;;;;;;;7.38;6.22;;;-1.50;53.80;;;;;;5068098;28;20256;-83
2022/03/08 05:14:05;;;;;;;10.20;7.57;;;-1.50;53.70;;;;;;5066751;28;20203;-82
2022/03/08 05:16:32;;;;;;;13.75;7.63;;;-1.40;53.60;;;;;;5067390;28;20203;-83
2022/03/08 05:18:59;;;;;;;9.98;7.40;;;-1.40;54.00;;;;;;5067244;28;20278;-82
2022/03/08 05:21:26;;;;;;;10.77;7.55;;;-1.50;54.40;;;;;;5068292;28;20200;-83
2022/03/08 05:23:53;;;;;;;11.13;7.65;;;-1.50;54.30;;;;;;5066214;28;20300;-82
2022/03/08 05:26:20;;;;;;;12.48;7.47;;;-1.40;54.30;;;;;;5068791;28;20205;-82
2022/03/08 05:28:47;;;;;;;12.88;6.72;;;-1.40;53.90;;;;;;5072150;28;20202;-82
2022/03/08 05:31:17;;;;;;;13.18;7.10;;;-1.50;53.90;;;;;;5067640;28;20210;-82
2022/03/08 05:33:44;;;;;;;8.60;6.90;;;-1.40;54.10;;;;;;5070417;28;20576;-82
2022/03/08 05:36:10;;;;;;;8.85;6.47;;;-1.40;64.30;;;;;;5070797;28;20203;-82
2022/03/08 05:38:38;;;;;;;8.48;7.50;;;;;;;;;;5070488;28;20304;-84
2022/03/08 05:41:04;;;;;;;8.50;7.60;;;-1.20;59.20;;;;;;5057505;28;20748;-84
2022/03/08 05:43:31;;;;;;;11.43;7.00;;;-1.30;53.90;;;;;;5068208;28;20199;-84
2022/03/08 05:45:58;;;;;;;7.45;6.32;;;-1.30;53.90;;;;;;5070333;28;20292;-84
2022/03/08 05:48:26;;;;;;;10.25;7.28;;;-1.30;53.80;;;;;;5070697;28;20234;-84
2022/03/08 05:50:53;;;;;;;12.73;7.50;;;-1.30;62.30;;;;;;5070139;28;20843;-84
2022/03/08 05:53:21;;;;;;;6.72;5.88;;;;;;;;;;5070470;28;20215;-84
2022/03/08 05:55:52;;;;;;;9.07;6.32;;;-1.20;53.30;;;;;;5070065;28;20199;-84
2022/03/08 05:59:00;;;;;;;8.07;6.82;;;-1.20;53.20;;;;;;5069599;28;20306;-84
2022/03/08 06:01:29;;;;;;;8.50;6.85;;;-1.10;59.10;;;;;;5047892;28;20759;-84
2022/03/08 06:03:58;;;;;;;8.35;7.10;;;-1.10;53.60;;;;;;5064355;28;20206;-84
2022/03/08 06:06:26;;;;;;;8.57;6.95;;;;;;;;;;5068095;28;20223;-84
2022/03/08 06:08:55;;;;;;;16.80;7.57;;;-1.10;53.50;;;;;;5069842;28;20252;-84
2022/03/08 06:11:23;;;;;;;12.48;7.25;;;;;;;;;;5069805;28;20207;-84
2022/03/08 06:13:56;;;;;;;7.95;6.32;;;;;;;;;;5069258;28;20207;-84
2022/03/08 06:16:26;;;;;;;10.18;6.97;;;-1.10;61.70;;;;;;5069616;28;20204;-84
2022/03/08 06:18:55;;;;;;;9.93;7.18;;;-0.90;53.30;;;;;;5067188;28;20251;-84
2022/03/08 06:21:23;;;;;;;10.77;7.13;;;-0.90;53.30;;;;;;5067431;28;20261;-84
2022/03/08 06:23:50;;;;;;;14.95;7.15;;;-1.00;61.90;;;;;;5069562;28;20298;-84
2022/03/08 06:26:17;;;;;;;12.80;8.30;;;;;;;;;;5069980;28;20255;-85
2022/03/08 06:28:44;;;;;;;8.75;7.32;;;-0.90;53.10;;;;;;5069473;28;20266;-84
2022/03/08 06:31:14;;;;;;;7.35;6.72;;;-0.90;53.10;;;;;;5069581;28;20294;-84
2022/03/08 06:33:41;;;;;;;12.05;8.13;;;-0.70;62.30;;;;;;5068842;28;20291;-84
2022/03/08 06:36:10;;;;;;;11.27;7.20;;;-0.70;52.70;;;;;;5068962;28;20289;-85
2022/03/08 06:38:39;;;;;;;12.07;7.22;;;-0.70;52.70;;;;;;5068801;28;20243;-84
2022/03/08 06:41:08;;;;;;;16.10;8.60;;;;;;;;;;5069682;28;20235;-85
2022/03/08 06:43:36;;;;;;;9.18;7.15;;;;;;;;;;5068771;28;20738;-84
2022/03/08 06:46:03;;;;;;;17.35;7.03;;;;;;;;;;5068896;28;20738;-85
2022/03/08 06:48:30;;;;;;;13.05;9.13;;;-0.50;58.70;;;;;;5067097;28;20731;-83
2022/03/08 06:50:57;;;;;;;8.68;7.80;;;-0.60;52.80;;;;;;5047950;28;20657;-84
2022/03/08 06:53:25;;;;;;;10.93;6.72;;;-0.40;61.50;;;;;;5060036;28;20199;-85
2022/03/08 06:55:53;;;;;;;9.98;7.40;;;-0.40;52.80;;;;;;5059996;28;20207;-85
2022/03/08 06:58:20;;;;;;;11.63;8.90;;;-0.30;53.20;;;;;;5062865;28;20269;-85
2022/03/08 07:00:47;;;;;;;19.50;11.00;;;;;;;;;;5067177;28;20215;-86
2022/03/08 07:03:16;;;;;;;11.40;7.72;;;-0.10;52.50;;;;;;5062838;28;20204;-86
2022/03/08 07:05:43;;;;;;;13.48;8.15;;;;;;;;;;5069396;28;20211;-85
2022/03/08 07:08:11;;;;;;;13.35;7.55;;;;;;;;;;5068529;28;20245;-85
2022/03/08 07:10:38;;;;;;;10.38;7.22;;;0.10;52.40;;;;;;5068800;28;20199;-86
2022/03/08 07:13:06;;;;;;;10.40;7.72;;;0.40;57.10;;;;;;5067494;28;20219;-85
2022/03/08 07:15:33;;;;;;;16.60;7.55;;;0.40;52.80;;;;;;5064778;28;20227;-85
2022/03/08 07:18:00;;;;;;;10.38;7.70;;;0.70;52.50;;;;;;5068800;28;21020;-85
2022/03/08 07:20:30;;;;;;;10.25;7.45;;;;;;;;;;5068640;28;20693;-87
2022/03/08 07:22:59;;;;;;;7.50;6.72;;;0.90;52.00;;;;;;5068858;28;20218;-85
2022/03/08 07:25:34;;;;;;;9.80;7.43;;;1.00;52.60;;;;;;5068382;28;20288;-85
2022/03/08 07:28:06;;;;;;;10.00;7.60;;;1.20;52.00;;;;;;5069073;28;20215;-85
2022/03/08 07:30:33;;;;;;;10.77;8.88;;;;;;;;;;5068393;28;20195;-85
2022/03/08 07:33:00;;;;;;;11.35;7.93;;;;;;;;;;5068831;28;20203;-85
2022/03/08 07:35:27;;;;;;;9.07;6.75;;;1.30;52.00;;;;;;5067956;28;20215;-87
2022/03/08 07:37:54;;;;;;;10.32;7.78;;;;;;;;;;5067957;28;20218;-86
2022/03/08 07:40:21;;;;;;;10.75;8.15;;;1.50;51.70;;;;;;5067578;28;20210;-85
2022/03/08 07:42:49;;;;;;;11.27;7.63;;;;;;;;;;5068424;28;20957;-86
2022/03/08 07:45:17;;;;;;;11.73;8.30;;;1.60;51.70;;;;;;5068971;28;20248;-86
2022/03/08 07:47:44;;;;;;;10.00;8.20;;;;;;;;;;5068073;28;20210;-86
2022/03/08 07:50:11;;;;;;;9.32;7.72;;;;;;;;;;5068084;28;20286;-86
2022/03/08 07:52:39;;;;;;;10.40;7.70;;;1.80;51.80;;;;;;5068731;28;20206;-86
2022/03/08 07:55:07;;;;;;;12.48;8.30;;;2.40;53.60;;;;;;5068271;28;20630;-85
2022/03/08 07:57:35;;;;;;;17.35;8.20;;;;;;;;;;5068469;28;20199;-86
2022/03/08 08:00:02;;;;;;;8.93;7.15;;;2.10;51.90;;;;;;5068280;28;20348;-86
2022/03/08 08:02:30;;;;;;;11.25;7.70;;;2.00;52.90;;;;;;5068197;28;20203;-87
2022/03/08 08:04:58;;;;;;;11.45;8.80;;;;;;;;;;5068268;28;20199;-86
2022/03/08 08:07:25;;;;;;;9.93;7.43;;;;;;;;;;5068483;28;20203;-86
2022/03/08 08:09:52;;;;;;;9.38;8.02;;;2.20;52.30;;;;;;5064957;28;20315;-86
2022/03/08 08:12:19;;;;;;;8.85;7.93;;;;;;;;;;5065813;28;20214;-86
2022/03/08 08:14:47;;;;;;;12.00;6.95;;;;;;;;;;5068691;28;20771;-86
2022/03/08 08:17:14;;;;;;;9.45;8.43;;;2.60;52.00;;;;;;5069297;28;20235;-86
2022/03/08 08:19:42;;;;;;;11.25;9.00;;;2.90;51.40;;;;;;5067940;28;20218;-86
2022/03/08 08:22:09;;;;;;;9.48;7.82;;;2.90;51.90;;;;;;5068592;28;20207;-86
2022/03/08 08:24:36;;;;;;;11.45;8.18;;;3.10;52.50;;;;;;5068903;28;20211;-87
2022/03/08 08:27:04;;;;;;;11.18;8.43;;;3.00;53.00;;;;;;5064857;28;20203;-87
2022/03/08 08:29:31;;;;;;;11.68;9.32;;;3.00;52.10;;;;;;5069322;28;20191;-86
2022/03/08 08:31:58;;;;;;;10.80;8.02;;;3.20;51.80;;;;;;5069279;28;20206;-86
2022/03/08 08:34:25;;;;;;;11.73;8.18;;;3.30;53.00;;;;;;5068937;28;20211;-86
2022/03/08 08:36:54;;;;;;;10.38;9.00;;;3.30;51.50;;;;;;5069244;28;20688;-87
2022/03/08 08:39:21;;;;;;;12.13;9.60;;;3.50;52.80;;;;;;5068962;28;20223;-87
2022/03/08 08:41:48;;;;;;;8.63;7.75;;;3.30;52.80;;;;;;5068506;28;20219;-88
2022/03/08 08:44:15;;;;;;;11.30;8.55;;;;;;;;;;5068453;28;20187;-88
2022/03/08 08:46:42;;;;;;;14.63;8.95;;;3.50;51.00;;;;;;5069147;28;20199;-87
2022/03/08 08:49:09;;;;;;;10.48;8.07;;;3.60;52.50;;;;;;5069117;28;20203;-87
2022/03/08 08:51:36;;;;;;;14.35;8.98;;;3.50;53.90;;;;;;5068651;28;20199;-88
2022/03/08 08:54:07;;;;;;;8.85;7.38;;;5.10;52.40;;;;;;5069483;28;20207;-88
2022/03/08 08:56:35;;;;;;;12.52;7.90;;;;;;;;;;5069255;28;20666;-88
2022/03/08 08:59:03;;;;;;;11.32;7.80;;;;;;;;;;5069355;28;20220;-88
2022/03/08 09:01:30;;;;;;;11.13;8.15;;;2.60;49.20;;;;;;5072704;28;20200;-87
2022/03/08 09:04:04;;;;;;;11.75;7.95;;;4.10;50.10;;;;;;5071065;28;20201;-88
2022/03/08 09:06:31;;;;;;;13.20;8.05;;;4.30;57.80;;;;;;5071747;28;20202;-88
2022/03/08 09:08:59;;;;;;;10.70;7.80;;;;;;;;;;5072972;28;20192;-89
2022/03/08 09:11:28;;;;;;;13.80;7.32;;;4.30;49.80;;;;;;5072926;28;20199;-88
2022/03/08 09:13:56;;;;;;;7.45;6.50;;;;;;;;;;5072219;28;20219;-88
2022/03/08 09:16:24;;;;;;;9.98;7.35;;;4.40;48.70;;;;;;5073482;28;20218;-89
2022/03/08 09:18:51;;;;;;;10.27;7.57;;;4.50;48.80;;;;;;5073928;28;20234;-89
2022/03/08 09:21:18;;;;;;;10.50;7.35;;;4.30;49.80;;;;;;5074647;28;20203;-89
2022/03/08 09:23:46;;;;;;;10.65;8.15;;;;;;;;;;5077239;28;20242;-89
2022/03/08 09:26:13;;;;;;;10.48;6.70;;;;;;;;;;5074599;28;20215;-88
2022/03/08 09:28:41;;;;;;;9.20;7.00;;;4.50;48.20;;;;;;5072477;28;20280;-88
2022/03/08 09:31:09;;;;;;;10.20;8.10;;;;;;;;;;5073498;28;20288;-90
2022/03/08 09:33:36;;;;;;;8.10;6.88;;;;;;;;;;5073393;28;20282;-89
2022/03/08 09:36:03;;;;;;;7.72;6.50;;;4.80;48.20;;;;;;5073767;28;20203;-89
2022/03/08 09:38:31;;;;;;;10.20;7.20;;;4.90;49.60;;;;;;5073369;28;20195;-88
2022/03/08 09:40:58;;;;;;;14.73;10.23;;;;;;;;;;5070427;28;20231;-88
2022/03/08 09:43:25;;;;;;;10.43;7.82;;;;;;;;;;5073988;28;20195;-89
2022/03/08 09:45:54;;;;;;;8.40;6.70;;;5.20;47.90;;;;;;5074487;28;20213;-89
2022/03/08 09:48:21;;;;;;;8.32;6.20;;;;;;;;;;5074463;28;20210;-88
2022/03/08 09:50:48;;;;;;;8.07;6.43;;;5.60;53.90;;;;;;5073829;28;20207;-88
2022/03/08 09:53:16;;;;;;;14.80;7.30;;;5.30;49.80;;;;;;5072379;28;20203;-89
2022/03/08 09:55:43;;;;;;;14.13;7.38;;;5.10;50.20;;;;;;5072837;28;20222;-88
2022/03/08 09:58:10;;;;;;;8.63;6.00;;;5.40;48.40;;;;;;5071563;28;20207;-88
2022/03/08 10:00:37;;;;;;;9.82;6.90;;;;;;;;;;5068342;28;20219;-89
2022/03/08 10:03:10;;;;;;;13.65;6.78;;;5.50;53.10;;;;;;5072323;28;20253;-88
2022/03/08 10:05:40;;;;;;;8.43;6.97;;;;;;;;;;5072903;28;20227;-89
2022/03/08 10:08:10;;;;;;;8.48;6.07;;;5.40;46.50;;;;;;5072660;28;20208;-88
2022/03/08 10:10:49;;;;;;;8.80;6.70;;;5.50;46.30;;;;;;5071875;28;20202;-88
2022/03/08 10:13:17;;;;;;;10.88;6.78;;;;;;;;;;5069607;28;20191;-90
2022/03/08 10:15:45;;;;;;;10.20;8.52;;;5.70;48.70;;;;;;5070639;28;20206;-89
2022/03/08 10:18:13;;;;;;;10.48;7.10;;;5.90;48.00;;;;;;5069779;28;20210;-89
2022/03/08 10:20:40;;;;;;;13.02;7.53;;;5.90;47.70;;;;;;5070294;28;20225;-88
2022/03/08 10:23:14;;;;;;;9.13;6.40;;;5.50;46.80;;;;;;5070828;28;20261;-89
2022/03/08 10:25:42;;;;;;;6.55;5.63;;;5.50;46.30;;;;;;5063172;28;20195;-89
2022/03/08 10:28:10;;;;;;;16.08;6.72;;;5.70;46.10;;;;;;5071432;28;20721;-89
2022/03/08 10:30:52;;;;;;;11.45;6.47;;;4.10;44.40;;;;;;5071302;28;20196;-88
2022/03/08 10:33:33;;;;;;;9.77;6.63;;;5.70;45.50;;;;;;5070630;28;20280;-89
2022/03/08 10:36:00;;;;;;;8.55;6.18;;;5.50;48.30;;;;;;5070681;28;20234;-88
2022/03/08 10:38:27;;;;;;;8.38;5.57;;;5.80;45.10;;;;;;5070770;28;20249;-89
2022/03/08 10:40:53;;;;;;;10.38;6.35;;;5.90;44.70;;;;;;5071177;28;20223;-89
2022/03/08 10:43:21;;;;;;;9.00;6.18;;;5.00;43.60;;;;;;5071391;28;20219;-89
2022/03/08 10:45:50;;;;;;;7.13;6.45;;;5.70;43.90;;;;;;5069278;28;20408;-88
2022/03/08 10:48:18;;;;;;;10.32;5.53;;;5.90;43.20;;;;;;5072401;28;20211;-87
2022/03/08 10:50:49;;;;;;;7.90;6.65;;;5.80;43.90;;;;;;5070895;28;20191;-89
2022/03/08 10:53:16;;;;;;;9.23;5.95;;;5.80;44.00;;;;;;5071331;28;20198;-88
2022/03/08 10:55:47;;;;;;;5.93;5.32;;;5.80;43.60;;;;;;5067390;28;20219;-88
2022/03/08 10:58:15;;;;;;;9.43;5.00;;;5.80;44.40;;;;;;5069079;28;20195;-89
2022/03/08 11:00:45;;;;;;;6.78;6.07;;;5.50;46.90;;;;;;5061377;28;20314;-88
2022/03/08 11:03:14;;;;;;;7.75;5.57;;;5.90;44.00;;;;;;5069826;28;20195;-87
2022/03/08 11:05:43;;;;;;;6.45;5.85;;;5.90;44.00;;;;;;5069646;28;20195;-88
2022/03/08 11:08:12;;;;;;;7.10;5.57;;;6.00;51.60;;;;;;5070043;28;20207;-88
2022/03/08 11:10:40;;;;;;;10.18;6.65;;;6.10;43.90;;;;;;5070238;28;20238;-87
2022/03/08 11:13:09;;;;;;;6.93;4.95;;;6.20;43.90;;;;;;5068766;28;20214;-87
2022/03/08 11:15:49;;;;;;;12.70;5.57;;;6.10;42.90;;;;;;5069989;28;20215;-88
2022/03/08 11:18:28;;;;;;;8.15;6.07;;;6.20;42.30;;;;;;5069435;28;20654;-88
2022/03/08 11:20:58;;;;;;;8.05;6.30;;;6.00;42.50;;;;;;5068750;28;20750;-87
2022/03/08 11:23:27;;;;;;;10.15;6.63;;;5.70;50.30;;;;;;5069781;28;20211;-88
2022/03/08 11:25:58;;;;;;;9.95;5.88;;;6.00;43.00;;;;;;5069366;28;20571;-88
2022/03/08 11:28:29;;;;;;;9.45;6.38;;;6.10;42.90;;;;;;5069102;28;20195;-87
2022/03/08 11:30:59;;;;;;;9.95;7.32;;;6.10;42.70;;;;;;5049542;28;20599;-88
2022/03/08 11:33:42;;;;;;;13.85;6.10;;;6.00;50.70;;;;;;5057854;28;20558;-89
2022/03/08 11:36:17;;;;;;;7.18;6.20;;;6.20;42.60;;;;;;5068696;28;20203;-88
2022/03/08 11:39:05;;;;;;;6.80;5.43;;;6.20;42.40;;;;;;5068989;28;20194;-88
2022/03/08 11:41:33;;;;;;;7.25;5.53;;;6.10;42.80;;;;;;5066188;28;20207;-87
2022/03/08 11:44:00;;;;;;;8.35;5.47;;;6.40;47.60;;;;;;5067957;28;20207;-88
2022/03/08 11:46:27;;;;;;;7.22;5.57;;;6.30;45.30;;;;;;5069332;28;20242;-88
2022/03/08 11:48:59;;;;;;;5.18;4.68;;;6.20;49.40;;;;;;5068964;28;20198;-88
2022/03/08 11:51:28;;;;;;;9.32;5.35;;;6.20;40.70;;;;;;5066421;28;20219;-88
2022/03/08 11:54:05;;;;;;;7.80;5.75;;;6.30;41.00;;;;;;5068936;28;20779;-87
2022/03/08 11:56:44;;;;;;;6.22;5.10;;;6.40;41.60;;;;;;5067483;28;20203;-87
2022/03/08 11:59:12;;;;;;;10.57;5.38;;;6.50;45.80;;;;;;5067766;28;20206;-88
2022/03/08 12:01:49;;;;;;;;;;;;;;;;;;;;;
2022/03/08 12:04:21;;;;;;;8.43;5.25;;;6.50;42.00;;;;;;5068195;28;20211;-89
2022/03/08 12:06:56;;;;;;;9.35;6.07;;;6.60;49.80;;;;;;5067635;28;20195;-89
2022/03/08 12:09:24;;;;;;;13.60;6.28;;;6.50;42.10;;;;;;5068461;28;20241;-88
2022/03/08 12:12:00;;;;;;;6.72;5.80;;;6.70;41.60;;;;;;5068108;28;20225;-88
2022/03/08 12:14:37;;;;;;;7.38;5.20;;;6.80;41.30;;;;;;5067067;28;20725;-88
2022/03/08 12:17:10;;;;;;;6.32;5.53;;;6.30;40.80;;;;;;5063694;28;20701;-88
2022/03/08 12:19:39;;;;;;;10.00;7.25;;;6.80;49.80;;;;;;5067246;28;20284;-88
2022/03/08 12:22:12;;;;;;;7.88;5.60;;;6.60;41.50;;;;;;5068555;28;20320;-88
2022/03/08 12:24:41;;;;;;;8.48;5.97;;;6.40;41.40;;;;;;5067963;28;20272;-88
2022/03/08 12:27:23;;;;;;;8.35;6.10;;;6.60;41.30;;;;;;5064298;28;20199;-89
2022/03/08 12:29:54;;;;;;;9.52;7.32;;;6.70;41.30;;;;;;5067633;28;20261;-88
2022/03/08 12:32:32;;;;;;;6.07;5.45;;;6.80;41.40;;;;;;5068323;28;20207;-87
2022/03/08 12:35:03;;;;;;;8.10;6.70;;;6.50;40.70;;;;;;5068539;28;20226;-88
2022/03/08 12:37:36;;;;;;;7.25;6.20;;;6.70;40.50;;;;;;5071975;28;20203;-88
2022/03/08 12:40:08;;;;;;;8.00;6.32;;;6.80;40.60;;;;;;5071243;28;20293;-88
2022/03/08 12:42:40;;;;;;;12.82;6.75;;;7.10;42.80;;;;;;5071991;28;20237;-88
2022/03/08 12:45:12;;;;;;;8.80;5.80;;;6.90;42.50;;;;;;5071169;28;20195;-88
2022/03/08 12:47:46;;;;;;;9.27;6.47;;;6.90;49.70;;;;;;5072099;28;20203;-89
2022/03/08 12:50:15;;;;;;;8.27;6.13;;;7.00;49.60;;;;;;5069974;28;20207;-87
2022/03/08 12:52:45;;;;;;;9.35;6.70;;;6.90;41.00;;;;;;5069548;28;20211;-86
2022/03/08 12:55:15;;;;;;;8.98;7.18;;;6.90;41.20;;;;;;5072524;28;20706;-88
2022/03/08 12:57:52;;;;;;;8.70;6.03;;;7.00;41.00;;;;;;5074692;28;20699;-88
2022/03/08 13:00:28;;;;;;;12.68;7.88;;;7.10;41.60;;;;;;5074535;28;20225;-88
2022/03/08 13:02:57;;;;;;;7.20;6.40;;;7.10;41.60;;;;;;5071506;28;20195;-89